Time;durP1;ratioP1;P1;durP2;ratioP2;P2;SDS_P1;SDS_P2;PMS_P1;PMS_P2;Temp;Humidity;BMP_temperature;BMP_pressure;BME280_temperature;BME280_humidity;BME280_pressure;Samples;Min_cycle;Max_cycle;Signal;HPM_P1;HPM_P2
2023/01/31 00:01:32;;;;;;;;;13.50;11.25;;;;;8.74;59.49;102434.13;5057484;28;45120;-61
2023/01/31 00:03:59;;;;;;;;;17.00;13.25;;;;;8.75;58.57;102433.31;5052501;28;46025;-60
2023/01/31 00:06:27;;;;;;;;;24.50;13.25;;;;;8.74;59.45;102429.72;5053815;28;45335;-62
2023/01/31 00:08:54;;;;;;;;;15.25;10.00;;;;;8.72;58.66;102419.81;5054169;28;45072;-61
2023/01/31 00:11:21;;;;;;;;;17.00;14.50;;;;;8.76;58.28;102417.44;5054429;28;45024;-62
2023/01/31 00:13:48;;;;;;;;;17.75;11.25;;;;;8.78;59.59;102426.44;5052328;28;45252;-61
2023/01/31 00:16:15;;;;;;;;;17.25;12.25;;;;;8.81;58.83;102426.63;5051560;28;45089;-60
2023/01/31 00:18:41;;;;;;;;;10.25;6.00;;;;;8.68;59.19;102397.38;5061009;28;44922;-61
2023/01/31 00:21:16;;;;;;;;;18.00;13.75;;;;;8.83;58.90;102419.63;5056488;28;45227;-61
2023/01/31 00:23:42;;;;;;;;;13.50;10.50;;;;;8.83;58.65;102414.28;5062632;28;45309;-60
2023/01/31 00:26:10;;;;;;;;;14.00;9.75;;;;;8.81;59.17;102410.63;5053066;28;44932;-65
2023/01/31 00:28:35;;;;;;;;;11.25;7.50;;;;;8.76;59.35;102401.44;5052381;28;45010;-62
2023/01/31 00:31:01;;;;;;;;;11.50;9.25;;;;;8.79;58.74;102416.69;5055329;28;45130;-60
2023/01/31 00:33:26;;;;;;;;;11.00;6.00;;;;;8.79;59.30;102412.28;5051290;28;45593;-61
2023/01/31 00:35:51;;;;;;;;;7.00;4.50;;;;;8.71;58.15;102399.31;5052871;28;45156;-60
2023/01/31 00:38:17;;;;;;;;;10.00;7.75;;;;;8.81;58.83;102415.97;5052284;28;45070;-60
2023/01/31 00:40:50;;;;;;;;;11.75;9.25;;;;;8.83;58.87;102411.63;5062067;28;45108;-60
2023/01/31 00:43:16;;;;;;;;;8.50;8.50;;;;;8.79;58.09;102406.97;5064319;28;45538;-60
2023/01/31 00:45:41;;;;;;;;;12.50;9.25;;;;;8.80;58.84;102416.78;5054324;28;45108;-62
2023/01/31 00:48:06;;;;;;;;;11.25;11.00;;;;;8.72;59.07;102403.81;5052515;28;45307;-62
2023/01/31 00:50:32;;;;;;;;;8.75;8.50;;;;;8.71;59.16;102409.97;5060033;28;45213;-60
2023/01/31 00:52:57;;;;;;;;;15.00;11.50;;;;;8.65;59.06;102408.78;5061807;28;45593;-59
2023/01/31 00:55:22;;;;;;;;;15.25;11.00;;;;;8.63;59.26;102413.09;5057396;28;45057;-60
2023/01/31 00:57:47;;;;;;;;;11.25;9.50;;;;;8.59;59.57;102403.06;5050111;28;47080;-61
2023/01/31 01:00:13;;;;;;;;;13.00;13.00;;;;;8.57;59.46;102401.16;5052098;28;45208;-60
2023/01/31 01:02:39;;;;;;;;;11.00;10.50;;;;;8.56;59.79;102408.19;5059846;28;46974;-60
2023/01/31 01:05:05;;;;;;;;;15.50;13.00;;;;;8.58;60.04;102394.97;5058039;28;45136;-61
2023/01/31 01:07:30;;;;;;;;;22.75;17.00;;;;;8.53;60.32;102386.72;5055057;28;45438;-63
2023/01/31 01:09:55;;;;;;;;;18.50;15.00;;;;;8.51;59.64;102382.13;5062654;28;45286;-61
2023/01/31 01:12:21;;;;;;;;;19.75;16.75;;;;;8.47;59.53;102378.34;5052547;28;45606;-61
2023/01/31 01:14:46;;;;;;;;;19.00;15.25;;;;;8.40;59.62;102376.13;5037386;28;45575;-62
2023/01/31 01:17:11;;;;;;;;;16.25;14.00;;;;;8.37;60.37;102383.91;5055057;28;45116;-60
2023/01/31 01:19:37;;;;;;;;;23.75;15.75;;;;;8.23;60.36;102359.06;5034065;28;45118;-61
2023/01/31 01:22:03;;;;;;;;;21.00;15.25;;;;;8.34;59.77;102389.03;5050503;28;45732;-61
2023/01/31 01:24:29;;;;;;;;;17.75;15.00;;;;;8.27;60.05;102380.66;5053729;28;45038;-60
2023/01/31 01:26:54;;;;;;;;;17.75;13.25;;;;;8.32;60.02;102391.59;5057306;28;45739;-60
2023/01/31 01:29:19;;;;;;;;;12.50;11.00;;;;;8.07;59.91;102344.81;5056057;28;44922;-61
2023/01/31 01:31:45;;;;;;;;;17.00;16.00;;;;;8.31;60.41;102389.75;5055215;28;56844;-59
2023/01/31 01:34:13;;;;;;;;;15.00;15.00;;;;;8.27;60.09;102396.63;5056802;28;45083;-60
2023/01/31 01:36:38;;;;;;;;;17.25;16.50;;;;;8.30;61.05;102395.94;5056206;28;45195;-59
2023/01/31 01:39:08;;;;;;;;;14.00;11.25;;;;;8.28;60.32;102400.22;5063040;28;45120;-60
2023/01/31 01:41:33;;;;;;;;;14.00;12.25;;;;;8.23;60.31;102396.34;5043961;28;45521;-62
2023/01/31 01:44:01;;;;;;;;;13.25;13.25;;;;;8.25;61.14;102390.31;5054805;28;45200;-62
2023/01/31 01:46:40;;;;;;;;;16.50;15.00;;;;;8.34;60.99;102395.28;5056747;28;45553;-59
2023/01/31 01:49:19;;;;;;;;;17.00;14.00;;;;;8.35;60.54;102389.13;5072488;28;45418;-61
2023/01/31 01:51:49;;;;;;;;;13.00;11.00;;;;;8.42;60.03;102391.34;5047576;28;46064;-61
2023/01/31 01:54:22;;;;;;;;;16.50;14.25;;;;;8.39;60.67;102383.16;5054940;28;44899;-63
2023/01/31 01:56:55;;;;;;;;;19.75;15.75;;;;;8.40;59.77;102384.09;5054033;28;45088;-62
2023/01/31 01:59:27;;;;;;;;;16.00;13.00;;;;;8.44;60.18;102397.72;5064937;28;45161;-60
2023/01/31 02:01:55;;;;;;;;;17.00;14.75;;;;;8.41;59.87;102384.16;5054535;28;45314;-60
2023/01/31 02:04:26;;;;;;;;;16.50;16.25;;;;;8.39;59.91;102383.16;5053819;28;45178;-60
2023/01/31 02:06:52;;;;;;;;;19.75;18.00;;;;;8.39;60.25;102385.81;5054946;28;45029;-60
2023/01/31 02:09:41;;;;;;;;;13.75;13.00;;;;;8.28;60.80;102365.59;5063795;28;45137;-61
2023/01/31 02:12:08;;;;;;;;;12.25;11.00;;;;;8.35;59.75;102381.16;5061798;28;45232;-60
2023/01/31 02:14:34;;;;;;;;;22.50;16.25;;;;;8.24;61.09;102363.59;5053979;28;45117;-61
2023/01/31 02:16:59;;;;;;;;;15.00;12.75;;;;;8.30;60.98;102374.63;5062395;28;44985;-62
2023/01/31 02:19:45;;;;;;;;;23.75;15.50;;;;;8.21;60.16;102376.69;5054745;28;44998;-62
2023/01/31 02:22:38;;;;;;;;;13.00;11.50;;;;;8.23;60.62;102378.66;5062044;28;46178;-61
2023/01/31 02:25:39;;;;;;;;;15.75;12.00;;;;;8.24;61.21;102382.22;5051840;28;45163;-60
2023/01/31 02:28:23;;;;;;;;;14.00;14.00;;;;;8.22;60.50;102384.78;5040262;28;45319;-61
2023/01/31 02:30:51;;;;;;;;;14.50;13.50;;;;;8.19;60.95;102384.59;5055456;28;45289;-59
2023/01/31 02:33:38;;;;;;;;;11.75;11.75;;;;;8.21;60.74;102384.69;5053345;28;47504;-61
2023/01/31 02:36:13;;;;;;;;;20.75;12.00;;;;;8.20;60.48;102377.50;5054411;28;45160;-59
2023/01/31 02:38:55;;;;;;;;;14.00;12.25;;;;;8.11;61.55;102369.88;5067597;28;45144;-61
2023/01/31 02:41:52;;;;;;;;;11.50;9.75;;;;;8.22;61.48;102394.53;5050827;28;45265;-60
2023/01/31 02:47:12;;;;;;;;;10.50;10.00;;;;;8.19;61.70;102389.91;5052354;28;45072;-60
2023/01/31 02:49:45;;;;;;;;;16.25;14.00;;;;;8.20;61.12;102386.44;5055770;28;45300;-61
2023/01/31 02:52:16;;;;;;;;;13.00;11.75;;;;;8.20;60.94;102386.44;5053382;28;45615;-62
2023/01/31 02:57:45;;;;;;;;;20.00;13.00;;;;;8.22;60.70;102383.88;5050292;28;45102;-60
2023/01/31 03:00:12;;;;;;;;;13.25;10.50;;;;;8.22;61.26;102378.56;5053046;28;45193;-60
2023/01/31 03:02:38;;;;;;;;;15.00;12.75;;;;;8.21;60.81;102382.03;5055763;28;45187;-62
2023/01/31 03:05:03;;;;;;;;;18.25;13.50;;;;;8.07;61.89;102358.13;5057568;28;45272;-59
2023/01/31 03:07:37;;;;;;;;;15.75;11.00;;;;;8.21;61.89;102374.03;5054304;28;45151;-61
2023/01/31 03:10:11;;;;;;;;;12.75;12.75;;;;;8.20;61.13;102374.84;5054285;28;44996;-61
2023/01/31 03:13:03;;;;;;;;;12.50;10.50;;;;;8.20;61.22;102383.78;5053739;28;45141;-59
2023/01/31 03:18:38;;;;;;;;;14.25;11.50;;;;;8.09;61.46;102358.22;5049820;28;45138;-60
2023/01/31 03:21:16;;;;;;;;;19.75;12.75;;;;;8.18;61.55;102379.16;5057036;28;44951;-61
2023/01/31 03:23:47;;;;;;;;;15.00;12.75;;;;;8.14;61.73;102394.03;5061220;28;45150;-60
2023/01/31 03:26:14;;;;;;;;;11.00;11.00;;;;;7.92;61.90;102352.78;5054993;28;46347;-60
2023/01/31 03:28:41;;;;;;;;;13.25;10.50;;;;;8.16;61.87;102389.72;5053686;28;45216;-61
2023/01/31 03:31:17;;;;;;;;;12.50;10.00;;;;;8.15;61.45;102392.28;5058962;28;45207;-60
2023/01/31 03:33:54;;;;;;;;;11.75;10.75;;;;;8.16;61.64;102389.72;5055693;28;45171;-61
2023/01/31 03:36:29;;;;;;;;;15.00;15.00;;;;;8.15;62.06;102400.28;5047566;28;46866;-62
2023/01/31 03:39:11;;;;;;;;;13.25;10.50;;;;;8.14;61.52;102402.03;5066509;28;44943;-60
2023/01/31 03:42:06;;;;;;;;;12.50;11.00;;;;;8.16;62.20;102396.81;5053299;28;45295;-61
2023/01/31 03:45:02;;;;;;;;;18.75;13.50;;;;;8.15;61.41;102390.56;5047990;28;45252;-60
2023/01/31 03:47:30;;;;;;;;;16.25;9.75;;;;;8.14;61.73;102393.13;5035491;28;47238;-60
2023/01/31 03:50:01;;;;;;;;;13.50;10.25;;;;;8.08;61.91;102397.25;5054959;28;45150;-60
2023/01/31 03:52:33;;;;;;;;;10.25;8.25;;;;;8.00;61.42;102392.25;5037954;28;45214;-60
2023/01/31 03:55:10;;;;;;;;;12.25;10.25;;;;;7.94;62.32;102385.72;5063139;28;45242;-59
2023/01/31 03:57:39;;;;;;;;;13.25;11.00;;;;;7.72;62.21;102353.22;5034930;28;45972;-61
2023/01/31 04:00:08;;;;;;;;;9.00;9.00;;;;;7.93;62.60;102390.94;5053246;28;44931;-60
2023/01/31 04:02:36;;;;;;;;;10.25;8.75;;;;;7.95;61.83;102391.94;5052787;28;46073;-61
2023/01/31 04:05:06;;;;;;;;;10.50;10.50;;;;;7.91;62.58;102396.16;5035148;28;45152;-61
2023/01/31 04:07:32;;;;;;;;;13.25;7.50;;;;;7.38;62.14;102292.59;5052831;28;45743;-59
2023/01/31 04:09:58;;;;;;;;;13.75;7.50;;;;;7.96;61.93;102392.88;5062204;28;45184;-59
2023/01/31 04:12:23;;;;;;;;;10.00;9.00;;;;;7.94;62.58;102383.06;5054000;28;45211;-61
2023/01/31 04:14:48;;;;;;;;;8.00;5.00;;;;;7.90;62.59;102381.03;5055353;28;45096;-60
2023/01/31 04:17:14;;;;;;;;;8.50;8.25;;;;;7.93;62.35;102381.19;5053052;28;45154;-61
2023/01/31 04:19:39;;;;;;;;;10.75;7.75;;;;;7.81;62.44;102359.16;5052955;28;45181;-63
2023/01/31 04:22:04;;;;;;;;;14.50;10.00;;;;;7.92;61.79;102387.38;5052254;28;44954;-60
2023/01/31 04:24:30;;;;;;;;;16.75;10.75;;;;;7.92;61.56;102383.78;5053031;28;45263;-61
2023/01/31 04:26:55;;;;;;;;;10.50;9.00;;;;;7.88;62.02;102387.97;5034338;28;45973;-60
2023/01/31 04:29:20;;;;;;;;;13.25;9.00;;;;;7.88;62.02;102395.97;5052840;28;45086;-61
2023/01/31 04:31:46;;;;;;;;;10.75;8.75;;;;;7.82;62.71;102387.59;5052843;28;45207;-60
2023/01/31 04:34:11;;;;;;;;;11.25;9.75;;;;;7.83;62.51;102396.50;5052423;28;44981;-60
2023/01/31 04:36:37;;;;;;;;;12.00;10.50;;;;;7.79;62.01;102402.44;5059383;28;46018;-60
2023/01/31 04:39:03;;;;;;;;;10.50;9.00;;;;;7.80;62.24;102404.28;5066067;28;45240;-60
2023/01/31 04:41:28;;;;;;;;;10.50;8.00;;;;;7.45;61.83;102357.72;5054059;28;45203;-60
2023/01/31 04:43:54;;;;;;;;;11.25;10.25;;;;;7.72;61.71;102390.47;5054700;28;45229;-61
2023/01/31 04:46:19;;;;;;;;;17.75;9.00;;;;;7.67;62.95;102407.88;5061344;28;45578;-61
2023/01/31 04:48:44;;;;;;;;;14.50;8.50;;;;;7.66;62.29;102398.09;5060653;28;45085;-60
2023/01/31 04:51:10;;;;;;;;;16.00;10.50;;;;;7.62;62.17;102388.97;5031154;28;45124;-61
2023/01/31 04:53:35;;;;;;;;;17.25;13.50;;;;;7.51;61.86;102369.66;5050014;28;44928;-61
2023/01/31 04:56:01;;;;;;;;;17.75;11.50;;;;;7.67;61.84;102392.88;5053007;28;45828;-64
2023/01/31 04:58:26;;;;;;;;;10.75;8.50;;;;;7.64;62.49;102378.41;5052288;28;45017;-61
2023/01/31 05:00:55;;;;;;;;;14.00;10.50;;;;;7.66;62.14;102396.34;5051284;28;50693;-61
2023/01/31 05:03:20;;;;;;;;;17.75;9.50;;;;;7.67;61.59;102399.91;5052876;28;45161;-61
2023/01/31 05:05:50;;;;;;;;;11.25;8.75;;;;;7.67;62.06;102390.22;5055189;28;45817;-62
2023/01/31 05:08:16;;;;;;;;;8.00;5.25;;;;;7.69;61.74;102388.56;5055654;28;45054;-61
2023/01/31 05:10:41;;;;;;;;;13.75;8.00;;;;;7.52;62.10;102355.56;5052193;28;44907;-60
2023/01/31 05:13:08;;;;;;;;;7.00;6.75;;;;;7.64;61.41;102382.03;5052463;28;45223;-60
2023/01/31 05:15:33;;;;;;;;;14.75;7.75;;;;;7.68;62.09;102384.03;5054366;28;45235;-61
2023/01/31 05:18:01;;;;;;;;;11.25;11.00;;;;;7.59;62.22;102371.88;5058966;28;45208;-60
2023/01/31 05:20:33;;;;;;;;;10.00;8.50;;;;;7.67;62.15;102374.25;5052219;28;45635;-60
2023/01/31 05:22:59;;;;;;;;;11.25;8.75;;;;;7.67;61.80;102370.63;5050035;28;45213;-60
2023/01/31 05:25:25;;;;;;;;;9.75;5.75;;;;;7.59;61.48;102367.50;5042558;28;45615;-60
2023/01/31 05:27:51;;;;;;;;;11.00;8.00;;;;;7.45;61.40;102345.31;5051161;28;45132;-64
2023/01/31 05:30:17;;;;;;;;;13.00;10.25;;;;;7.54;61.68;102375.19;5062367;28;45149;-61
2023/01/31 05:32:44;;;;;;;;;15.75;9.50;;;;;7.29;61.72;102329.19;5035640;28;44989;-61
2023/01/31 05:35:11;;;;;;;;;8.50;8.50;;;;;7.50;62.36;102378.44;5060735;28;45995;-60
2023/01/31 05:37:37;;;;;;;;;9.50;7.25;;;;;7.53;62.34;102383.97;5051949;28;44905;-60
2023/01/31 05:40:02;;;;;;;;;9.75;8.00;;;;;7.46;62.65;102371.09;5052589;28;45098;-61
2023/01/31 05:42:27;;;;;;;;;8.25;8.00;;;;;7.59;61.94;102385.19;5053153;28;45498;-61
2023/01/31 05:44:53;;;;;;;;;8.00;7.25;;;;;7.60;62.28;102392.34;5050673;28;46014;-61
2023/01/31 05:47:18;;;;;;;;;17.50;9.25;;;;;7.63;62.12;102392.56;5052360;28;45106;-60
2023/01/31 05:49:44;;;;;;;;;13.25;10.25;;;;;7.66;62.95;102392.75;5061449;28;44994;-60
2023/01/31 05:52:09;;;;;;;;;16.00;8.75;;;;;7.53;62.18;102370.69;5036214;28;44926;-60
2023/01/31 05:54:34;;;;;;;;;9.00;5.75;;;;;7.32;62.86;102343.59;5058244;28;47598;-60
2023/01/31 05:57:00;;;;;;;;;9.50;9.50;;;;;7.60;62.65;102384.38;5052414;28;45179;-61
2023/01/31 05:59:25;;;;;;;;;8.00;8.00;;;;;7.64;62.38;102384.69;5052687;28;45612;-62
2023/01/31 06:01:50;;;;;;;;;10.00;9.00;;;;;7.69;62.75;102392.97;5058068;28;45053;-61
2023/01/31 06:04:16;;;;;;;;;5.00;5.00;;;;;7.67;62.50;102387.53;5051327;28;45572;-60
2023/01/31 06:06:41;;;;;;;;;7.00;5.50;;;;;7.69;62.95;102379.66;5060968;28;45111;-62
2023/01/31 06:09:07;;;;;;;;;6.00;5.00;;;;;7.75;62.66;102385.34;5051801;28;45222;-60
2023/01/31 06:11:32;;;;;;;;;8.00;5.00;;;;;7.74;62.51;102372.91;5050149;28;45229;-61
2023/01/31 06:13:58;;;;;;;;;5.75;3.75;;;;;7.69;62.36;102380.56;5053108;28;46577;-61
2023/01/31 06:16:23;;;;;;;;;8.00;6.25;;;;;7.69;63.56;102371.69;5051188;28;45056;-61
2023/01/31 06:18:49;;;;;;;;;5.50;5.50;;;;;7.63;62.79;102350.91;5054695;28;45245;-60
2023/01/31 06:21:15;;;;;;;;;10.00;7.00;;;;;7.80;62.91;102369.69;5055565;28;45080;-61
2023/01/31 06:23:44;;;;;;;;;11.50;9.25;;;;;7.88;62.74;102382.66;5060523;28;45990;-61
2023/01/31 06:26:11;;;;;;;;;11.00;10.00;;;;;7.92;62.35;102387.38;5058242;28;45257;-60
2023/01/31 06:28:36;;;;;;;;;11.75;9.00;;;;;7.94;62.17;102388.38;5038422;28;45175;-60
2023/01/31 06:31:09;;;;;;;;;9.75;8.50;;;;;7.96;61.43;102392.88;5053613;28;45195;-60
2023/01/31 06:33:34;;;;;;;;;8.50;8.00;;;;;8.04;62.30;102411.16;5052335;28;46503;-61
2023/01/31 06:35:59;;;;;;;;;12.25;10.50;;;;;8.06;61.70;102405.94;5048384;28;54016;-62
2023/01/31 06:38:26;;;;;;;;;10.00;9.00;;;;;8.10;61.53;102406.25;5052012;28;44984;-60
2023/01/31 06:40:51;;;;;;;;;13.75;7.75;;;;;8.14;61.38;102401.13;5040907;28;45223;-61
2023/01/31 06:43:17;;;;;;;;;8.50;7.75;;;;;8.03;61.54;102381.78;5054728;28;45796;-61
2023/01/31 06:45:43;;;;;;;;;7.00;5.00;;;;;8.18;61.97;102414.69;5051950;28;45052;-60
2023/01/31 06:48:09;;;;;;;;;6.50;6.25;;;;;8.00;60.87;102381.59;5063828;28;44998;-61
2023/01/31 06:50:35;;;;;;;;;6.50;5.00;;;;;7.66;60.77;102329.84;5038420;28;44998;-61
2023/01/31 06:53:00;;;;;;;;;9.50;4.75;;;;;8.12;60.29;102417.00;5055240;28;45900;-61
2023/01/31 06:55:25;;;;;;;;;4.50;4.00;;;;;7.96;60.03;102390.22;5055611;28;45419;-61
2023/01/31 06:57:51;;;;;;;;;3.50;3.25;;;;;8.01;61.09;102415.38;5055377;28;45277;-60
2023/01/31 07:00:17;;;;;;;;;7.25;5.00;;;;;7.98;60.66;102417.84;5032772;28;45351;-62
2023/01/31 07:02:44;;;;;;;;;10.50;6.25;;;;;7.97;60.59;102419.59;5051403;28;45097;-62
2023/01/31 07:05:09;;;;;;;;;4.75;4.25;;;;;7.91;62.08;102401.47;5049926;28;45241;-61
2023/01/31 07:07:34;;;;;;;;;7.25;3.75;;;;;7.97;60.99;102408.00;5051418;28;44940;-61
2023/01/31 07:10:00;;;;;;;;;7.75;5.00;;;;;8.01;61.62;102415.38;5051972;28;45359;-60
2023/01/31 07:12:26;;;;;;;;;7.75;5.00;;;;;8.00;60.66;102416.19;5039087;28;45512;-61
2023/01/31 07:14:51;;;;;;;;;9.25;6.50;;;;;8.03;61.00;102417.31;5036125;28;45596;-62
2023/01/31 07:17:16;;;;;;;;;11.75;7.75;;;;;8.00;60.42;102402.88;5034900;28;45936;-61
2023/01/31 07:19:42;;;;;;;;;23.50;17.75;;;;;8.05;60.97;102418.34;5038113;28;45567;-60
2023/01/31 07:22:07;;;;;;;;;17.50;15.25;;;;;8.11;60.93;102415.13;5032114;28;54139;-62
2023/01/31 07:24:33;;;;;;;;;13.00;8.75;;;;;8.13;61.59;102405.50;5035754;28;45470;-61
2023/01/31 07:27:00;;;;;;;;;13.25;10.00;;;;;8.08;61.32;102396.31;5039220;28;45473;-61
2023/01/31 07:29:25;;;;;;;;;9.25;6.25;;;;;8.17;60.33;102407.53;5017607;28;45450;-61
2023/01/31 07:31:51;;;;;;;;;18.50;12.25;;;;;8.16;60.81;102404.78;5017718;28;45773;-63
2023/01/31 07:34:17;;;;;;;;;8.50;6.00;;;;;8.21;60.50;102417.56;5034821;28;45539;-61
2023/01/31 07:36:43;;;;;;;;;8.00;8.00;;;;;8.11;59.70;102404.50;5035432;28;45374;-61
2023/01/31 07:39:08;;;;;;;;;9.25;6.25;;;;;8.19;59.94;102420.97;5035732;28;45399;-61
2023/01/31 07:41:34;;;;;;;;;5.50;4.00;;;;;8.21;60.20;102416.63;5037456;28;45761;-62
2023/01/31 07:43:59;;;;;;;;;5.00;4.00;;;;;8.16;60.36;102408.34;5035640;28;45296;-62
2023/01/31 07:46:24;;;;;;;;;8.50;6.50;;;;;8.19;60.34;102421.88;5035659;28;45787;-61
2023/01/31 07:48:50;;;;;;;;;5.75;4.00;;;;;8.19;60.30;102410.31;5042756;28;45580;-62
2023/01/31 07:51:15;;;;;;;;;12.00;12.00;;;;;8.18;59.89;102411.13;5045564;28;46338;-62
2023/01/31 07:53:41;;;;;;;;;9.00;8.00;;;;;8.22;60.85;102421.16;5017594;28;45483;-61
2023/01/31 07:56:08;;;;;;;;;8.00;5.50;;;;;8.23;60.30;102422.97;5035679;28;45447;-61
2023/01/31 07:58:35;;;;;;;;;9.25;4.50;;;;;8.19;60.12;102421.88;5034871;28;45668;-60
2023/01/31 08:03:45;;;;;;;;;8.25;5.00;;;;;8.22;59.67;102423.81;5034985;28;45478;-62
2023/01/31 08:06:12;;;;;;;;;7.00;5.75;;;;;8.26;60.79;102424.09;5035531;28;45518;-61
2023/01/31 08:08:39;;;;;;;;;8.00;4.00;;;;;8.20;60.52;102413.06;5015355;28;45455;-62
2023/01/31 08:11:04;;;;;;;;;7.50;3.50;;;;;8.23;60.76;102426.56;5035660;28;46095;-62
2023/01/31 08:13:38;;;;;;;;;5.00;3.25;;;;;8.34;60.67;102427.22;5036228;28;45428;-62
2023/01/31 08:16:05;;;;;;;;;9.00;5.75;;;;;8.39;59.82;102420.44;5036449;28;45566;-61
2023/01/31 08:18:32;;;;;;;;;11.50;9.75;;;;;8.37;60.48;102411.44;5035703;28;45402;-64
2023/01/31 08:20:58;;;;;;;;;10.75;6.00;;;;;8.45;60.38;102426.19;5026061;28;46104;-61
2023/01/31 08:23:24;;;;;;;;;10.50;7.50;;;;;8.39;60.06;102423.09;5044281;28;45584;-61
2023/01/31 08:25:49;;;;;;;;;10.75;6.00;;;;;8.24;59.51;102387.56;5028798;28;45567;-61
2023/01/31 08:28:15;;;;;;;;;8.00;6.00;;;;;8.47;60.37;102428.97;5030917;28;45387;-62
2023/01/31 08:30:42;;;;;;;;;8.75;5.75;;;;;8.44;60.51;102432.34;5034446;28;45490;-62
2023/01/31 08:33:10;;;;;;;;;9.75;8.00;;;;;8.53;60.20;102433.72;5036025;28;45572;-62
2023/01/31 08:35:36;;;;;;;;;9.00;9.00;;;;;8.51;59.13;102430.97;5040915;28;47594;-60
2023/01/31 08:38:01;;;;;;;;;7.50;7.25;;;;;8.45;59.11;102414.63;5053522;28;45584;-62
2023/01/31 08:40:27;;;;;;;;;6.00;5.00;;;;;8.57;59.30;102438.44;5036149;28;46443;-62
2023/01/31 08:42:56;;;;;;;;;11.25;7.00;;;;;8.48;59.76;102421.06;5028415;28;45601;-63
2023/01/31 08:45:22;;;;;;;;;7.00;7.00;;;;;8.59;60.10;102431.44;5024817;28;45559;-64
2023/01/31 08:47:52;;;;;;;;;11.25;9.00;;;;;8.61;59.17;102435.13;5031075;28;45536;-61
2023/01/31 08:50:18;;;;;;;;;15.00;11.00;;;;;8.64;59.91;102445.97;5031572;28;46293;-61
2023/01/31 08:52:43;;;;;;;;;8.25;7.75;;;;;8.71;59.65;102455.25;5032007;28;45438;-61
2023/01/31 08:55:12;;;;;;;;;10.00;6.00;;;;;8.71;58.84;102461.53;5024396;28;53165;-61
2023/01/31 08:57:38;;;;;;;;;15.50;8.00;;;;;8.60;59.20;102441.31;5028232;28;45752;-62
2023/01/31 09:00:04;;;;;;;;;13.00;9.00;;;;;8.63;59.41;102437.06;5033990;28;45519;-64
2023/01/31 09:02:29;;;;;;;;;10.25;6.50;;;;;8.68;58.88;102445.34;5035375;28;45970;-62
2023/01/31 09:04:54;;;;;;;;;8.25;7.25;;;;;8.69;59.05;102446.25;5032968;28;45371;-65
2023/01/31 09:07:20;;;;;;;;;11.00;8.50;;;;;8.71;58.14;102439.28;5034112;28;45516;-63
2023/01/31 09:09:47;;;;;;;;;13.50;9.25;;;;;8.75;58.19;102438.66;5018141;28;46888;-63
2023/01/31 09:12:12;;;;;;;;;9.00;5.00;;;;;8.70;58.73;102426.78;5031873;28;46297;-63
2023/01/31 09:14:37;;;;;;;;;10.00;8.50;;;;;8.81;57.91;102445.28;5029430;28;45430;-63
2023/01/31 09:17:03;;;;;;;;;9.75;6.50;;;;;8.86;58.55;102453.56;5033852;28;45995;-63
2023/01/31 09:19:28;;;;;;;;;13.25;11.00;;;;;8.86;59.09;102445.56;5034507;28;46154;-63
2023/01/31 09:21:53;;;;;;;;;8.25;7.25;;;;;8.79;57.71;102428.28;5036367;28;50206;-63
2023/01/31 09:24:18;;;;;;;;;9.50;7.50;;;;;8.94;58.18;102454.94;5037270;28;53309;-62
2023/01/31 09:26:44;;;;;;;;;11.00;7.25;;;;;8.93;58.33;102447.75;5037856;28;45465;-66
2023/01/31 09:29:09;;;;;;;;;10.75;7.25;;;;;8.92;58.50;102443.25;5027355;28;45708;-63
2023/01/31 09:31:34;;;;;;;;;8.25;6.50;;;;;8.98;57.13;102464.94;5028962;28;48833;-63
2023/01/31 09:34:00;;;;;;;;;9.75;5.50;;;;;9.01;57.15;102467.81;5030899;28;45374;-60
2023/01/31 09:36:26;;;;;;;;;11.00;5.75;;;;;9.00;58.04;102457.03;5034730;28;45361;-66
2023/01/31 09:38:55;;;;;;;;;15.75;11.75;;;;;9.00;58.55;102465.94;5032609;28;46169;-63
2023/01/31 09:41:30;;;;;;;;;11.00;10.75;;;;;9.02;57.67;102471.38;5025953;28;45245;-61
2023/01/31 09:44:22;;;;;;;;;11.75;9.00;;;;;9.07;57.99;102461.91;5016128;28;45335;-61
2023/01/31 09:46:57;;;;;;;;;10.25;9.75;;;;;9.11;57.55;102474.59;5037844;28;45378;-61
2023/01/31 09:49:30;;;;;;;;;11.75;7.75;;;;;9.14;57.79;102468.53;5034636;28;46475;-61
2023/01/31 09:51:59;;;;;;;;;12.25;10.50;;;;;9.17;57.80;102468.72;5013977;28;45543;-62
2023/01/31 09:54:33;;;;;;;;;11.25;9.00;;;;;9.23;57.62;102471.75;5017839;28;45462;-64
2023/01/31 09:57:04;;;;;;;;;19.75;10.25;;;;;9.14;57.12;102450.78;5038220;28;45438;-62
2023/01/31 09:59:54;;;;;;;;;10.25;6.00;;;;;9.23;57.50;102474.41;5018137;28;45624;-63
2023/01/31 10:02:51;;;;;;;;;58.75;47.00;;;;;9.27;57.19;102486.19;5018285;28;45493;-62
2023/01/31 10:05:32;;;;;;;;;11.75;10.25;;;;;9.28;57.00;102470.28;5033660;28;45403;-63
2023/01/31 10:08:22;;;;;;;;;16.00;9.50;;;;;9.33;56.90;102460.78;5034178;28;45373;-64
2023/01/31 10:10:52;;;;;;;;;7.25;7.25;;;;;9.36;56.53;102466.31;5036201;28;45746;-61
2023/01/31 10:13:28;;;;;;;;;14.00;11.00;;;;;9.34;56.50;102462.63;5037078;28;45689;-60
2023/01/31 10:16:05;;;;;;;;;12.50;10.00;;;;;9.39;56.15;102474.50;5038250;28;45555;-63
2023/01/31 10:18:39;;;;;;;;;8.00;5.25;;;;;9.40;56.70;102472.75;5038698;28;45360;-61
2023/01/31 10:21:11;;;;;;;;;8.25;8.25;;;;;9.43;56.84;102472.00;5037041;28;47045;-62
2023/01/31 10:24:12;;;;;;;;;7.75;7.50;;;;;9.45;57.25;102475.69;5018458;28;45493;-61
2023/01/31 10:26:40;;;;;;;;;11.25;10.25;;;;;9.48;56.89;102483.88;5040296;28;45435;-62
2023/01/31 10:29:33;;;;;;;;;9.50;9.50;;;;;9.39;55.96;102453.16;5049888;28;45364;-63
2023/01/31 10:32:03;;;;;;;;;14.50;8.25;;;;;9.47;56.03;102458.00;5017001;28;46473;-62
2023/01/31 10:34:40;;;;;;;;;10.25;8.25;;;;;9.51;56.41;102460.94;5036723;28;45284;-61
2023/01/31 10:37:12;;;;;;;;;10.00;9.00;;;;;9.55;56.39;102454.03;5054009;28;45244;-63
2023/01/31 10:39:57;;;;;;;;;11.75;8.00;;;;;9.53;55.75;102434.34;5040657;28;45333;-62
2023/01/31 10:42:31;;;;;;;;;21.00;9.00;;;;;9.72;56.16;102455.94;5033694;28;45313;-62
2023/01/31 10:45:19;;;;;;;;;12.25;9.75;;;;;9.67;55.32;102440.47;5019021;28;45454;-63
2023/01/31 10:47:58;;;;;;;;;11.75;9.75;;;;;9.84;55.59;102453.06;5036309;28;45610;-62
2023/01/31 10:50:30;;;;;;;;;13.00;10.00;;;;;9.89;55.37;102456.91;5018652;28;45712;-63
2023/01/31 10:53:37;;;;;;;;;14.00;10.00;;;;;9.88;55.35;102448.78;5019678;28;47560;-62
2023/01/31 10:56:05;;;;;;;;;10.25;7.00;;;;;9.91;55.10;102452.56;5030222;28;45438;-62
2023/01/31 10:58:31;;;;;;;;;9.75;7.75;;;;;9.88;55.03;102444.41;5036822;28;45470;-62
2023/01/31 11:00:57;;;;;;;;;13.50;9.00;;;;;9.82;54.92;102428.03;5043006;28;45352;-62
2023/01/31 11:03:23;;;;;;;;;17.50;13.50;;;;;9.99;55.05;102439.63;5038203;28;45485;-62
2023/01/31 11:05:50;;;;;;;;;12.00;12.00;;;;;10.04;54.74;102437.22;5018226;28;45359;-65
2023/01/31 11:08:25;;;;;;;;;12.50;11.00;;;;;10.06;55.08;102432.88;5036536;28;45411;-63
2023/01/31 11:10:54;;;;;;;;;11.00;8.25;;;;;10.03;54.85;102430.03;5019021;28;45561;-65
2023/01/31 11:13:19;;;;;;;;;13.00;11.00;;;;;9.99;54.43;102407.59;5035070;28;46399;-63
2023/01/31 11:15:51;;;;;;;;;12.75;10.50;;;;;10.07;54.76;102419.63;5032305;28;45442;-63
2023/01/31 11:18:31;;;;;;;;;16.25;11.25;;;;;10.07;54.61;102416.06;5030546;28;45401;-63
2023/01/31 11:20:59;;;;;;;;;20.50;16.00;;;;;10.11;54.31;102413.63;5030611;28;45576;-62
2023/01/31 11:23:28;;;;;;;;;15.50;12.50;;;;;10.18;54.72;102414.88;5038513;28;45528;-63
2023/01/31 11:25:55;;;;;;;;;13.50;13.00;;;;;10.21;54.38;102406.09;5032401;28;45480;-64
2023/01/31 11:28:23;;;;;;;;;18.50;12.50;;;;;10.30;54.76;102403.94;5041110;28;45482;-63
2023/01/31 11:30:52;;;;;;;;;14.00;13.50;;;;;10.30;54.12;102402.19;5047972;28;45508;-63
2023/01/31 11:33:38;;;;;;;;;13.25;9.25;;;;;10.33;54.30;102394.38;5036232;28;46965;-64
2023/01/31 11:36:15;;;;;;;;;13.25;13.25;;;;;10.29;54.02;102380.72;5037826;28;45504;-64
2023/01/31 11:38:41;;;;;;;;;24.00;15.00;;;;;10.43;54.27;102393.13;5019976;28;45678;-63
2023/01/31 11:41:36;;;;;;;;;19.75;13.00;;;;;10.46;53.95;102387.94;5033874;28;45706;-62
2023/01/31 11:44:22;;;;;;;;;12.25;8.25;;;;;10.47;53.86;102384.41;5033360;28;46134;-60
2023/01/31 11:46:49;;;;;;;;;10.75;10.50;;;;;10.57;53.69;102384.91;5035426;28;45599;-62